createdAt,value
2018-08-09T00:00:28.308Z,85.08
2018-08-09T00:01:28.310Z,85.66
2018-08-09T00:02:28.314Z,86.04
2018-08-09T00:03:28.313Z,87.49
2018-08-09T00:04:28.316Z,87.88
2018-08-09T00:05:28.322Z,88.45
2018-08-09T00:06:28.323Z,87.97
2018-08-09T00:07:28.326Z,88.65
2018-08-09T00:08:28.331Z,88.84
2018-08-09T00:09:28.334Z,88.17
2018-08-09T00:10:28.337Z,87.78
2018-08-09T00:11:28.341Z,87.10
2018-08-09T00:12:28.344Z,87.88
2018-08-09T00:13:28.349Z,86.52
2018-08-09T00:14:28.351Z,85.85
2018-08-09T00:15:28.356Z,86.14
2018-08-09T00:16:28.360Z,85.94
2018-08-09T00:17:28.363Z,85.85
2018-08-09T00:18:28.366Z,84.89
2018-08-09T00:19:28.369Z,85.17
2018-08-09T00:20:28.374Z,85.08
2018-08-09T00:21:28.377Z,84.69
2018-08-09T00:22:28.380Z,85.12
2018-08-09T00:23:28.394Z,84.89
2018-08-09T00:24:28.393Z,84.79
2018-08-09T00:25:28.392Z,84.41
2018-08-09T00:26:28.394Z,84.01
2018-08-09T00:27:28.401Z,83.83
2018-08-09T00:28:28.402Z,84.11
2018-08-09T00:29:28.407Z,84.41
2018-08-09T00:30:28.409Z,84.69
2018-08-09T00:31:28.414Z,84.11
2018-08-09T00:32:28.416Z,83.92
2018-08-09T00:33:28.421Z,83.83
2018-08-09T00:34:28.422Z,84.06
2018-08-09T00:35:28.426Z,83.34
2018-08-09T00:36:28.431Z,83.25
2018-08-09T00:37:28.437Z,83.53
2018-08-09T00:38:28.438Z,82.86
2018-08-09T00:39:28.441Z,82.96
2018-08-09T00:40:28.444Z,83.15
2018-08-09T00:41:28.448Z,82.86
2018-08-09T00:42:28.451Z,82.28
2018-08-09T00:43:28.456Z,81.90
2018-08-09T00:44:28.461Z,81.99
2018-08-09T00:45:28.464Z,80.93
2018-08-09T00:46:28.466Z,81.07
2018-08-09T00:47:28.469Z,81.65
2018-08-09T00:48:28.474Z,80.93
2018-08-09T00:49:28.478Z,80.39
2018-08-09T00:50:28.480Z,80.26
2018-08-09T00:51:28.483Z,81.32
2018-08-09T00:52:28.490Z,80.26
2018-08-09T00:53:28.492Z,80.54
2018-08-09T00:54:28.495Z,80.54
2018-08-09T00:55:28.498Z,80.54
2018-08-09T00:56:28.501Z,80.64
2018-08-09T00:57:28.510Z,80.35
2018-08-09T00:58:28.509Z,80.45
2018-08-09T00:59:28.512Z,80.83
2018-08-09T01:00:28.515Z,81.51
2018-08-09T01:01:28.519Z,80.93
2018-08-09T01:02:28.539Z,81.12
2018-08-09T01:03:28.527Z,81.60
2018-08-09T01:04:28.530Z,81.80
2018-08-09T01:05:28.534Z,80.93
2018-08-09T01:06:28.536Z,80.45
2018-08-09T01:07:28.543Z,81.32
2018-08-09T01:08:28.544Z,81.12
2018-08-09T01:09:28.547Z,81.41
2018-08-09T01:10:28.556Z,80.54
2018-08-09T01:11:28.561Z,80.83
2018-08-09T01:12:28.559Z,81.51
2018-08-09T01:13:28.573Z,80.83
2018-08-09T01:14:28.573Z,80.93
2018-08-09T01:15:28.572Z,81.99
2018-08-09T01:16:28.574Z,80.93
2018-08-09T01:17:28.576Z,81.90
2018-08-09T01:18:28.578Z,81.70
2018-08-09T01:19:28.582Z,82.67
2018-08-09T01:20:28.585Z,82.38
2018-08-09T01:21:28.591Z,82.34
2018-08-09T01:22:28.592Z,82.53
2018-08-09T01:23:28.596Z,82.53
2018-08-09T01:24:28.599Z,83.30
2018-08-09T01:25:28.603Z,83.20
2018-08-09T01:26:28.607Z,83.88
2018-08-09T01:27:28.612Z,83.88
2018-08-09T01:28:28.613Z,83.98
2018-08-09T01:29:28.617Z,83.98
2018-08-09T01:30:28.623Z,83.40
2018-08-09T01:31:28.623Z,83.88
2018-08-09T01:32:28.627Z,83.98
2018-08-09T01:33:28.631Z,83.69
2018-08-09T01:34:28.637Z,83.11
2018-08-09T01:35:28.638Z,82.72
2018-08-09T01:36:28.641Z,83.30
2018-08-09T01:37:28.644Z,83.40
2018-08-09T01:38:28.648Z,83.59
2018-08-09T01:39:28.651Z,82.82
2018-08-09T01:40:28.654Z,82.82
2018-08-09T01:41:28.657Z,82.43
2018-08-09T01:42:28.660Z,82.53
2018-08-09T01:43:28.670Z,82.34
2018-08-09T01:44:28.667Z,81.85
2018-08-09T01:45:28.671Z,82.53
2018-08-09T01:46:28.673Z,82.14
2018-08-09T01:47:28.677Z,82.82
2018-08-09T01:48:28.684Z,82.43
2018-08-09T01:49:28.685Z,82.62
2018-08-09T01:50:28.689Z,82.92
2018-08-09T01:51:28.691Z,82.43
2018-08-09T01:52:28.696Z,82.62
2018-08-09T01:53:28.699Z,82.05
2018-08-09T01:54:28.702Z,81.76
2018-08-09T01:55:28.705Z,81.37
2018-08-09T01:56:28.706Z,81.37
2018-08-09T01:57:28.711Z,81.47
2018-08-09T01:58:28.716Z,81.76
2018-08-09T01:59:28.719Z,82.14
2018-08-09T02:00:28.722Z,82.05
2018-08-09T02:01:28.725Z,82.53
2018-08-09T02:02:28.729Z,80.89
2018-08-09T02:03:28.732Z,81.37
2018-08-09T02:04:28.735Z,80.69
2018-08-09T02:05:28.739Z,81.09
2018-08-09T02:06:28.746Z,80.31
2018-08-09T02:07:28.746Z,80.51
2018-08-09T02:08:28.749Z,80.79
2018-08-09T02:09:28.754Z,80.79
2018-08-09T02:10:28.755Z,80.41
2018-08-09T02:11:28.759Z,80.54
2018-08-09T02:12:28.763Z,81.12
2018-08-09T02:13:28.766Z,80.45
2018-08-09T02:14:28.768Z,80.06
2018-08-09T02:15:28.772Z,80.35
2018-08-09T02:16:28.776Z,79.87
2018-08-09T02:17:28.780Z,80.06
2018-08-09T02:18:28.782Z,79.87
2018-08-09T02:19:28.785Z,79.97
2018-08-09T02:20:28.788Z,80.16
2018-08-09T02:21:28.791Z,80.06
2018-08-09T02:22:28.794Z,80.06
2018-08-09T02:23:28.798Z,79.97
2018-08-09T02:24:28.803Z,79.77
2018-08-09T02:25:28.806Z,79.77
2018-08-09T02:26:28.809Z,79.19
2018-08-09T02:27:28.812Z,79.39
2018-08-09T02:28:28.815Z,79.39
2018-08-09T02:29:28.823Z,79.39
2018-08-09T02:30:28.823Z,79.68
2018-08-09T02:31:28.825Z,79.39
2018-08-09T02:32:28.829Z,79.58
2018-08-09T02:33:28.834Z,79.58
2018-08-09T02:34:28.837Z,79.10
2018-08-09T02:35:28.839Z,79.10
2018-08-09T02:36:28.843Z,80.06
2018-08-09T02:37:28.846Z,79.39
2018-08-09T02:38:28.853Z,79.77
2018-08-09T02:39:28.853Z,79.58
2018-08-09T02:40:28.858Z,79.49
2018-08-09T02:41:28.860Z,79.10
2018-08-09T02:42:28.862Z,78.81
2018-08-09T02:43:28.867Z,79.87
2018-08-09T02:44:28.870Z,79.29
2018-08-09T02:45:28.876Z,79.58
2018-08-09T02:46:28.876Z,79.00
2018-08-09T02:47:28.880Z,79.29
2018-08-09T02:48:28.884Z,78.91
2018-08-09T02:49:28.890Z,80.16
2018-08-09T02:50:28.891Z,79.68
2018-08-09T02:51:28.894Z,80.06
2018-08-09T02:52:28.896Z,79.29
2018-08-09T02:53:28.901Z,79.77
2018-08-09T02:54:28.908Z,79.39
2018-08-09T02:55:28.907Z,80.06
2018-08-09T02:56:28.915Z,80.06
2018-08-09T02:57:28.915Z,80.41
2018-08-09T02:58:28.917Z,81.47
2018-08-09T02:59:28.921Z,82.53
2018-08-09T03:00:28.924Z,81.95
2018-08-09T03:01:28.930Z,82.43
2018-08-09T03:02:28.932Z,82.82
2018-08-09T03:03:28.934Z,82.53
2018-08-09T03:04:28.938Z,82.87
2018-08-09T03:05:28.951Z,82.78
2018-08-09T03:06:28.945Z,82.97
2018-08-09T03:07:28.948Z,83.01
2018-08-09T03:08:28.951Z,83.11
2018-08-09T03:09:28.957Z,82.87
2018-08-09T03:10:28.957Z,83.26
2018-08-09T03:11:28.967Z,83.45
2018-08-09T03:12:28.967Z,83.36
2018-08-09T03:13:28.968Z,83.36
2018-08-09T03:14:28.971Z,83.74
2018-08-09T03:15:28.973Z,83.36
2018-08-09T03:16:28.978Z,83.74
2018-08-09T03:17:28.980Z,83.74
2018-08-09T03:18:28.983Z,83.84
2018-08-09T03:19:28.986Z,83.84
2018-08-09T03:20:28.990Z,84.12
2018-08-09T03:21:28.994Z,83.84
2018-08-09T03:22:28.996Z,82.78
2018-08-09T03:23:28.999Z,82.68
2018-08-09T03:24:29.047Z,82.39
2018-08-09T03:25:29.007Z,82.24
2018-08-09T03:26:29.010Z,81.37
2018-08-09T03:27:29.012Z,80.89
2018-08-09T03:28:29.017Z,80.41
2018-08-09T03:29:29.019Z,80.31
2018-08-09T03:30:29.021Z,80.41
2018-08-09T03:31:29.031Z,80.99
2018-08-09T03:32:29.028Z,80.69
2018-08-09T03:33:29.031Z,80.69
2018-08-09T03:34:29.034Z,80.51
2018-08-09T03:35:29.039Z,80.31
2018-08-09T03:36:29.040Z,80.41
2018-08-09T03:37:29.044Z,80.12
2018-08-09T03:38:29.047Z,80.31
2018-08-09T03:39:29.052Z,80.12
2018-08-09T03:40:29.055Z,80.31
2018-08-09T03:41:29.058Z,80.60
2018-08-09T03:42:29.064Z,80.02
2018-08-09T03:43:29.064Z,80.31
2018-08-09T03:44:29.097Z,80.31
2018-08-09T03:45:29.072Z,79.93
2018-08-09T03:46:29.074Z,79.93
2018-08-09T03:47:29.076Z,79.93
2018-08-09T03:48:29.081Z,80.02
2018-08-09T03:49:29.084Z,80.12
2018-08-09T03:50:29.086Z,80.12
2018-08-09T03:51:29.089Z,80.60
2018-08-09T03:52:29.092Z,80.31
2018-08-09T03:53:29.097Z,79.44
2018-08-09T03:54:29.099Z,80.22
2018-08-09T03:55:29.102Z,80.60
2018-08-09T03:56:29.105Z,80.51
2018-08-09T03:57:29.109Z,80.69
2018-08-09T03:58:29.112Z,80.51
2018-08-09T03:59:29.116Z,81.27
2018-08-09T04:00:29.118Z,81.09
2018-08-09T04:01:29.122Z,80.99
2018-08-09T04:02:29.127Z,81.04
2018-08-09T04:03:29.131Z,79.93
2018-08-09T04:04:29.131Z,79.93
2018-08-09T04:05:29.134Z,80.22
2018-08-09T04:06:29.137Z,79.93
2018-08-09T04:07:29.140Z,79.25
2018-08-09T04:08:29.143Z,79.83
2018-08-09T04:09:29.148Z,80.02
2018-08-09T04:10:29.149Z,79.54
2018-08-09T04:11:29.153Z,79.35
2018-08-09T04:12:29.156Z,79.74
2018-08-09T04:13:29.159Z,80.22
2018-08-09T04:14:29.162Z,79.54
2018-08-09T04:15:29.167Z,79.83
2018-08-09T04:16:29.169Z,80.51
2018-08-09T04:17:29.172Z,79.35
2018-08-09T04:18:29.175Z,79.44
2018-08-09T04:19:29.176Z,79.54
2018-08-09T04:20:29.182Z,79.83
2018-08-09T04:21:29.184Z,79.83
2018-08-09T04:22:29.186Z,79.89
2018-08-09T04:23:29.189Z,79.60
2018-08-09T04:24:29.192Z,79.83
2018-08-09T04:25:29.197Z,79.79
2018-08-09T04:26:29.233Z,80.12
2018-08-09T04:27:29.201Z,79.11
2018-08-09T04:28:29.205Z,79.16
2018-08-09T04:29:29.207Z,79.02
2018-08-09T04:30:29.214Z,80.02
2018-08-09T04:31:29.213Z,79.83
2018-08-09T04:32:29.217Z,79.25
2018-08-09T04:33:29.219Z,79.64
2018-08-09T04:34:29.222Z,79.93
2018-08-09T04:35:29.226Z,79.89
2018-08-09T04:36:29.228Z,79.83
2018-08-09T04:37:29.238Z,80.18
2018-08-09T04:38:29.234Z,80.27
2018-08-09T04:39:29.237Z,80.94
2018-08-09T04:40:29.242Z,81.81
2018-08-09T04:41:29.244Z,80.85
2018-08-09T04:42:29.245Z,80.94
2018-08-09T04:43:29.250Z,81.04
2018-08-09T04:44:29.253Z,80.56
2018-08-09T04:45:29.256Z,80.94
2018-08-09T04:46:29.259Z,80.46
2018-08-09T04:47:29.264Z,80.27
2018-08-09T04:48:29.265Z,81.14
2018-08-09T04:49:29.268Z,81.72
2018-08-09T04:50:29.270Z,80.85
2018-08-09T04:51:29.273Z,81.52
2018-08-09T04:52:29.277Z,81.72
2018-08-09T04:53:29.280Z,81.91
2018-08-09T04:54:29.281Z,81.91
2018-08-09T04:55:29.285Z,82.39
2018-08-09T04:56:29.288Z,81.52
2018-08-09T04:57:29.291Z,81.33
2018-08-09T04:58:29.321Z,81.24
2018-08-09T04:59:29.296Z,80.18
2018-08-09T05:00:29.300Z,79.98
2018-08-09T05:01:29.304Z,80.37
2018-08-09T05:02:29.309Z,80.56
2018-08-09T05:03:29.314Z,80.85
2018-08-09T05:04:29.312Z,80.37
2018-08-09T05:05:29.315Z,80.56
2018-08-09T05:06:29.323Z,80.27
2018-08-09T05:07:29.321Z,80.08
2018-08-09T05:08:29.324Z,80.12
2018-08-09T05:09:29.327Z,79.93
2018-08-09T05:10:29.331Z,79.35
2018-08-09T05:11:29.332Z,78.96
2018-08-09T05:12:29.335Z,79.35
2018-08-09T05:13:29.340Z,78.58
2018-08-09T05:14:29.341Z,78.48
2018-08-09T05:15:29.344Z,78.48
2018-08-09T05:16:29.348Z,77.81
2018-08-09T05:17:29.354Z,78.19
2018-08-09T05:18:29.353Z,77.81
2018-08-09T05:19:29.356Z,77.71
2018-08-09T05:20:29.360Z,78.00
2018-08-09T05:21:29.364Z,77.90
2018-08-09T05:22:29.365Z,77.81
2018-08-09T05:23:29.370Z,77.71
2018-08-09T05:24:29.373Z,77.61
2018-08-09T05:25:29.375Z,77.13
2018-08-09T05:26:29.408Z,76.98
2018-08-09T05:27:29.382Z,77.71
2018-08-09T05:28:29.384Z,77.71
2018-08-09T05:29:29.389Z,77.75
2018-08-09T05:30:29.391Z,77.61
2018-08-09T05:31:29.394Z,77.84
2018-08-09T05:32:29.397Z,77.81
2018-08-09T05:33:29.401Z,78.19
2018-08-09T05:34:29.403Z,78.00
2018-08-09T05:35:29.407Z,77.81
2018-08-09T05:36:29.410Z,78.13
2018-08-09T05:37:29.414Z,78.67
2018-08-09T05:38:29.416Z,78.67
2018-08-09T05:39:29.420Z,78.58
2018-08-09T05:40:29.424Z,77.94
2018-08-09T05:41:29.426Z,78.13
2018-08-09T05:42:29.428Z,78.03
2018-08-09T05:43:29.435Z,78.13
2018-08-09T05:44:29.436Z,78.13
2018-08-09T05:45:29.443Z,77.94
2018-08-09T05:46:29.442Z,77.75
2018-08-09T05:47:29.446Z,77.75
2018-08-09T05:48:29.450Z,77.07
2018-08-09T05:49:29.453Z,77.55
2018-08-09T05:50:29.456Z,77.84
2018-08-09T05:51:29.502Z,77.84
2018-08-09T05:52:29.463Z,77.65
2018-08-09T05:53:29.466Z,76.68
2018-08-09T05:54:29.468Z,76.43
2018-08-09T05:55:29.475Z,76.24
2018-08-09T05:56:29.476Z,76.53
2018-08-09T05:57:29.479Z,76.43
2018-08-09T05:58:29.522Z,76.05
2018-08-09T05:59:29.509Z,76.34
2018-08-09T06:00:29.490Z,76.53
2018-08-09T06:01:29.494Z,75.76
2018-08-09T06:02:29.496Z,75.95
2018-08-09T06:03:29.501Z,75.27
2018-08-09T06:04:29.503Z,75.47
2018-08-09T06:05:29.563Z,74.99
2018-08-09T06:06:29.511Z,75.02
2018-08-09T06:07:29.516Z,74.93
2018-08-09T06:08:29.520Z,75.22
2018-08-09T06:09:29.527Z,75.41
2018-08-09T06:10:29.528Z,75.51
2018-08-09T06:11:29.529Z,76.47
2018-08-09T06:12:29.533Z,75.41
2018-08-09T06:13:29.675Z,75.02
2018-08-09T06:14:29.545Z,74.73
2018-08-09T06:15:29.545Z,75.41
2018-08-09T06:16:29.549Z,75.54
2018-08-09T06:17:29.552Z,74.16
2018-08-09T06:18:29.554Z,74.16
2018-08-09T06:19:29.560Z,74.16
2018-08-09T06:20:29.568Z,74.93
2018-08-09T06:21:29.662Z,74.83
2018-08-09T06:22:29.570Z,74.83
2018-08-09T06:23:29.575Z,74.19
2018-08-09T06:24:29.578Z,73.13
2018-08-09T06:25:29.584Z,73.71
2018-08-09T06:26:29.652Z,73.32
2018-08-09T06:27:29.591Z,72.84
2018-08-09T06:28:29.594Z,72.84
2018-08-09T06:29:29.600Z,73.80
2018-08-09T06:30:29.602Z,73.80
2018-08-09T06:31:29.605Z,73.90
2018-08-09T06:32:29.611Z,73.90
2018-08-09T06:33:29.655Z,73.80
2018-08-09T06:34:29.618Z,72.45
2018-08-09T06:35:29.627Z,72.78
2018-08-09T06:36:29.627Z,72.58
2018-08-09T06:37:29.631Z,72.58
2018-08-09T06:38:29.635Z,73.46
2018-08-09T06:39:29.638Z,73.26
2018-08-09T06:40:29.646Z,74.32
2018-08-09T06:41:29.648Z,73.78
2018-08-09T06:42:29.651Z,73.10
2018-08-09T06:43:29.656Z,72.81
2018-08-09T06:44:29.662Z,71.66
2018-08-09T06:45:29.665Z,71.46
2018-08-09T06:46:29.669Z,72.42
2018-08-09T06:47:29.684Z,73.30
2018-08-09T06:48:29.683Z,70.40
2018-08-09T06:49:29.683Z,70.40
2018-08-09T06:50:29.688Z,70.10
2018-08-09T06:51:29.693Z,69.82
2018-08-09T06:52:29.696Z,70.14
2018-08-09T06:53:29.700Z,70.24
2018-08-09T06:54:29.704Z,70.72
2018-08-09T06:55:29.710Z,71.66
2018-08-09T06:56:29.715Z,72.08
2018-08-09T06:57:29.719Z,71.11
2018-08-09T06:58:29.723Z,69.66
2018-08-09T06:59:29.727Z,69.37
2018-08-09T07:00:29.733Z,70.14
2018-08-09T07:01:29.737Z,69.31
2018-08-09T07:02:29.741Z,68.63
2018-08-09T07:03:29.747Z,68.05
2018-08-09T07:04:29.752Z,67.66
2018-08-09T07:05:29.757Z,67.18
2018-08-09T07:06:29.763Z,66.14
2018-08-09T07:07:29.768Z,64.24
2018-08-09T07:08:29.774Z,62.95
2018-08-09T07:09:29.784Z,62.49
2018-08-09T07:10:29.788Z,61.84
2018-08-09T07:11:29.797Z,58.59
2018-08-09T07:12:29.804Z,58.07
2018-08-09T07:13:29.813Z,57.90
2018-08-09T07:14:29.821Z,57.25
2018-08-09T07:15:29.829Z,54.26
2018-08-09T07:16:29.839Z,52.60
2018-08-09T07:17:29.850Z,52.22
2018-08-09T07:18:29.856Z,51.82
2018-08-09T07:19:29.869Z,52.40
2018-08-09T07:20:30.017Z,52.77
2018-08-09T07:21:29.885Z,53.85
2018-08-09T07:22:29.892Z,55.50
2018-08-09T07:23:29.902Z,54.52
2018-08-09T07:24:29.911Z,53.87
2018-08-09T07:25:29.918Z,53.87
2018-08-09T07:26:29.990Z,54.06
2018-08-09T07:27:29.937Z,54.91
2018-08-09T07:28:29.945Z,55.89
2018-08-09T07:29:29.954Z,55.96
2018-08-09T07:30:29.962Z,57.00
2018-08-09T07:31:29.970Z,58.65
2018-08-09T07:32:29.978Z,58.33
2018-08-09T07:33:29.985Z,57.26
2018-08-09T07:34:29.993Z,57.62
2018-08-09T07:35:30.002Z,58.69
2018-08-09T07:36:30.015Z,59.89
2018-08-09T07:37:30.019Z,59.18
2018-08-09T07:38:30.025Z,57.75
2018-08-09T07:39:30.044Z,58.72
2018-08-09T07:40:30.042Z,58.89
2018-08-09T07:41:30.050Z,59.67
2018-08-09T07:42:30.056Z,59.28
2018-08-09T07:43:30.064Z,58.69
2018-08-09T07:44:30.072Z,58.50
2018-08-09T07:45:30.080Z,57.72
2018-08-09T07:46:30.087Z,58.40
2018-08-09T07:47:30.094Z,58.79
2018-08-09T07:48:30.109Z,58.98
2018-08-09T07:49:30.111Z,58.76
2018-08-09T07:50:30.117Z,57.21
2018-08-09T07:51:30.127Z,57.60
2018-08-09T07:52:30.130Z,58.95
2018-08-09T07:53:30.138Z,58.18
2018-08-09T07:54:30.146Z,57.98
2018-08-09T07:55:30.153Z,58.95
2018-08-09T07:56:30.160Z,58.57
2018-08-09T07:57:30.233Z,58.57
2018-08-09T07:58:30.173Z,58.86
2018-08-09T07:59:30.181Z,60.61
2018-08-09T08:00:30.189Z,59.22
2018-08-09T08:01:30.197Z,59.31
2018-08-09T08:02:30.203Z,58.57
2018-08-09T08:03:30.212Z,58.01
2018-08-09T08:04:30.218Z,57.75
2018-08-09T08:05:30.295Z,57.07
2018-08-09T08:06:30.234Z,55.93
2018-08-09T08:07:30.245Z,55.18
2018-08-09T08:08:30.300Z,53.45
2018-08-09T08:09:30.261Z,52.58
2018-08-09T08:10:30.271Z,52.70
2018-08-09T08:11:30.284Z,53.09
2018-08-09T08:12:30.291Z,52.44
2018-08-09T08:13:30.300Z,52.24
2018-08-09T08:14:30.328Z,52.24
2018-08-09T08:15:30.352Z,51.29
2018-08-09T08:16:30.366Z,50.63
2018-08-09T08:17:30.345Z,50.14
2018-08-09T08:18:30.356Z,49.49
2018-08-09T08:19:30.367Z,48.14
2018-08-09T08:20:30.380Z,47.28
2018-08-09T08:21:30.414Z,47.19
2018-08-09T08:22:30.463Z,46.53
2018-08-09T08:23:30.421Z,47.02
2018-08-09T08:24:30.433Z,47.41
2018-08-09T08:25:30.447Z,45.97
2018-08-09T08:26:30.633Z,44.81
2018-08-09T08:27:30.474Z,44.69
2018-08-09T08:28:30.487Z,44.71
2018-08-09T08:29:30.501Z,44.71
2018-08-09T08:30:30.516Z,45.97
2018-08-09T08:31:30.527Z,46.53
2018-08-09T08:32:30.539Z,46.62
2018-08-09T08:33:30.552Z,46.82
2018-08-09T08:34:30.566Z,46.82
2018-08-09T08:35:30.577Z,46.80
2018-08-09T08:36:30.592Z,47.09
2018-08-09T08:37:30.601Z,47.95
2018-08-09T08:38:30.614Z,46.88
2018-08-09T08:39:30.627Z,46.60
2018-08-09T08:40:30.640Z,45.84
2018-08-09T08:41:30.728Z,45.97
2018-08-09T08:42:30.671Z,45.79
2018-08-09T08:43:30.683Z,44.62
2018-08-09T08:44:30.697Z,45.03
2018-08-09T08:45:30.713Z,43.77
2018-08-09T08:46:30.726Z,43.77
2018-08-09T08:47:30.794Z,42.45
2018-08-09T08:48:30.757Z,42.15
2018-08-09T08:49:30.774Z,40.63
2018-08-09T08:50:30.789Z,39.64
2018-08-09T08:51:30.941Z,39.66
2018-08-09T08:52:30.823Z,39.66
2018-08-09T08:53:30.840Z,38.80
2018-08-09T08:54:30.855Z,38.92
2018-08-09T08:55:30.882Z,40.11
2018-08-09T08:56:30.888Z,43.46
2018-08-09T08:57:30.906Z,43.56
2018-08-09T08:58:30.922Z,43.48
2018-08-09T08:59:30.935Z,44.48
2018-08-09T09:00:30.951Z,45.82
2018-08-09T09:01:30.973Z,46.48
2018-08-09T09:02:30.986Z,47.83
2018-08-09T09:03:30.995Z,49.39
2018-08-09T09:04:31.047Z,48.10
2018-08-09T09:05:31.027Z,48.12
2018-08-09T09:06:31.039Z,47.75
2018-08-09T09:07:31.059Z,47.17
2018-08-09T09:08:31.068Z,47.28
2018-08-09T09:09:31.081Z,46.31
2018-08-09T09:10:31.096Z,44.74
2018-08-09T09:11:31.132Z,46.01
2018-08-09T09:12:31.125Z,44.51
2018-08-09T09:13:31.140Z,45.17
2018-08-09T09:14:31.154Z,46.24
2018-08-09T09:15:31.167Z,46.41
2018-08-09T09:16:31.182Z,47.07
2018-08-09T09:17:31.196Z,48.07
2018-08-09T09:18:31.208Z,47.29
2018-08-09T09:19:31.221Z,46.44
2018-08-09T09:20:31.235Z,46.17
2018-08-09T09:21:31.248Z,46.58
2018-08-09T09:22:31.275Z,46.00
2018-08-09T09:23:31.273Z,46.19
2018-08-09T09:24:31.284Z,46.48
2018-08-09T09:25:31.298Z,46.39
2018-08-09T09:26:31.308Z,46.17
2018-08-09T09:27:31.321Z,46.01
2018-08-09T09:28:31.332Z,44.09
2018-08-09T09:29:31.347Z,43.89
2018-08-09T09:30:31.358Z,44.45
2018-08-09T09:31:31.370Z,44.74
2018-08-09T09:32:31.383Z,45.72
2018-08-09T09:33:31.397Z,45.14
2018-08-09T09:34:31.407Z,44.69
2018-08-09T09:35:31.417Z,43.07
2018-08-09T09:36:31.431Z,41.84
2018-08-09T09:37:31.445Z,41.27
2018-08-09T09:38:31.457Z,40.39
2018-08-09T09:39:31.472Z,40.45
2018-08-09T09:40:31.488Z,41.74
2018-08-09T09:41:31.501Z,40.95
2018-08-09T09:42:31.512Z,38.72
2018-08-09T09:43:31.526Z,37.66
2018-08-09T09:44:31.539Z,37.46
2018-08-09T09:45:31.554Z,37.38
2018-08-09T09:46:31.568Z,37.84
2018-08-09T09:47:31.856Z,38.06
2018-08-09T09:48:31.597Z,38.92
2018-08-09T09:49:31.619Z,40.08
2018-08-09T09:50:31.627Z,39.86
2018-08-09T09:51:31.639Z,41.11
2018-08-09T09:52:31.653Z,40.06
2018-08-09T09:53:31.667Z,39.66
2018-08-09T09:54:31.681Z,39.64
2018-08-09T09:55:31.695Z,39.72
2018-08-09T09:56:31.801Z,40.01
2018-08-09T09:57:31.785Z,39.61
2018-08-09T09:58:31.948Z,39.39
2018-08-09T09:59:31.779Z,39.47
2018-08-09T10:00:31.767Z,40.64
2018-08-09T10:01:31.774Z,40.84
2018-08-09T10:02:31.787Z,40.17
2018-08-09T10:03:31.802Z,40.39
2018-08-09T10:04:31.816Z,40.21
2018-08-09T10:05:31.868Z,40.72
2018-08-09T10:06:31.841Z,39.47
2018-08-09T10:07:31.854Z,39.01
2018-08-09T10:08:31.868Z,37.54
2018-08-09T10:09:31.883Z,36.18
2018-08-09T10:10:31.945Z,36.35
2018-08-09T10:11:31.911Z,36.55
2018-08-09T10:12:31.926Z,39.61
2018-08-09T10:13:31.940Z,37.17
2018-08-09T10:14:31.955Z,35.82
2018-08-09T10:15:31.970Z,35.91
2018-08-09T10:16:31.985Z,35.41
2018-08-09T10:17:32.000Z,35.42
2018-08-09T10:18:32.017Z,35.82
2018-08-09T10:19:32.030Z,35.74
2018-08-09T10:20:32.047Z,35.46
2018-08-09T10:21:32.062Z,34.10
2018-08-09T10:22:32.075Z,33.22
2018-08-09T10:23:32.094Z,35.30
2018-08-09T10:24:32.107Z,34.41
2018-08-09T10:25:32.125Z,34.72
2018-08-09T10:26:32.138Z,32.95
2018-08-09T10:27:32.153Z,31.98
2018-08-09T10:28:32.169Z,31.69
2018-08-09T10:29:32.186Z,31.49
2018-08-09T10:30:32.200Z,32.45
2018-08-09T10:31:32.216Z,33.22
2018-08-09T10:32:32.232Z,33.59
2018-08-09T10:33:32.247Z,34.18
2018-08-09T10:34:32.262Z,33.77
2018-08-09T10:35:32.295Z,34.85
2018-08-09T10:36:32.295Z,35.95
2018-08-09T10:37:32.312Z,34.67
2018-08-09T10:38:32.327Z,34.56
2018-08-09T10:39:32.341Z,34.66
2018-08-09T10:40:32.358Z,34.75
2018-08-09T10:41:32.374Z,33.77
2018-08-09T10:42:32.388Z,34.64
2018-08-09T10:43:32.404Z,33.46
2018-08-09T10:44:32.420Z,33.46
2018-08-09T10:45:32.434Z,33.48
2018-08-09T10:46:32.450Z,33.38
2018-08-09T10:47:32.465Z,33.08
2018-08-09T10:48:32.481Z,31.04
2018-08-09T10:49:32.541Z,30.82
2018-08-09T10:50:32.511Z,31.50
2018-08-09T10:51:32.526Z,31.07
2018-08-09T10:52:32.541Z,31.96
2018-08-09T10:53:32.556Z,32.06
2018-08-09T10:54:32.573Z,32.54
2018-08-09T10:55:32.592Z,32.37
2018-08-09T10:56:32.655Z,31.79
2018-08-09T10:57:32.618Z,31.23
2018-08-09T10:58:32.649Z,29.68
2018-08-09T10:59:32.651Z,28.91
2018-08-09T11:00:32.662Z,28.54
2018-08-09T11:01:32.678Z,28.55
2018-08-09T11:02:32.692Z,29.14
2018-08-09T11:03:32.721Z,28.54
2018-08-09T11:04:32.723Z,28.16
2018-08-09T11:05:32.738Z,29.34
2018-08-09T11:06:32.752Z,27.86
2018-08-09T11:07:32.767Z,28.74
2018-08-09T11:08:32.785Z,28.13
2018-08-09T11:09:33.820Z,29.07
2018-08-09T11:10:32.812Z,29.85
2018-08-09T11:11:32.829Z,30.93
2018-08-09T11:12:32.843Z,30.43
2018-08-09T11:13:32.858Z,32.30
2018-08-09T11:14:32.873Z,32.30
2018-08-09T11:15:32.888Z,31.15
2018-08-09T11:16:32.903Z,31.74
2018-08-09T11:17:32.919Z,30.58
2018-08-09T11:18:32.955Z,30.27
2018-08-09T11:19:32.949Z,30.27
2018-08-09T11:20:32.964Z,30.65
2018-08-09T11:21:32.985Z,31.04
2018-08-09T11:22:32.993Z,30.74
2018-08-09T11:23:33.059Z,30.35
2018-08-09T11:24:33.025Z,30.84
2018-08-09T11:25:33.039Z,30.55
2018-08-09T11:26:33.077Z,30.35
2018-08-09T11:27:33.068Z,29.96
2018-08-09T11:28:33.083Z,30.84
2018-08-09T11:29:33.131Z,29.86
2018-08-09T11:30:33.112Z,30.74
2018-08-09T11:31:33.127Z,29.07
2018-08-09T11:32:33.142Z,29.57
2018-08-09T11:33:33.157Z,30.35
2018-08-09T11:34:33.170Z,29.97
2018-08-09T11:35:33.187Z,29.28
2018-08-09T11:36:33.201Z,29.49
2018-08-09T11:37:33.216Z,28.61
2018-08-09T11:38:33.231Z,27.74
2018-08-09T11:39:33.268Z,27.26
2018-08-09T11:40:33.259Z,27.37
2018-08-09T11:41:33.275Z,25.81
2018-08-09T11:42:33.289Z,27.40
2018-08-09T11:43:33.305Z,27.01
2018-08-09T11:44:33.319Z,27.51
2018-08-09T11:45:33.332Z,26.14
2018-08-09T11:46:33.347Z,28.00
2018-08-09T11:47:33.367Z,27.91
2018-08-09T11:48:33.378Z,27.62
2018-08-09T11:49:33.396Z,26.54
2018-08-09T11:50:33.407Z,25.86
2018-08-09T11:51:33.424Z,26.04
2018-08-09T11:52:33.439Z,26.73
2018-08-09T11:53:33.455Z,26.93
2018-08-09T11:54:33.469Z,25.23
2018-08-09T11:55:33.484Z,26.09
2018-08-09T11:56:33.514Z,26.37
2018-08-09T11:57:33.524Z,25.67
2018-08-09T11:58:33.530Z,26.26
2018-08-09T11:59:33.546Z,27.15
2018-08-09T12:00:33.561Z,28.23
2018-08-09T12:01:33.622Z,27.64
2018-08-09T12:02:33.589Z,27.44
2018-08-09T12:03:33.608Z,28.12
2018-08-09T12:04:33.651Z,27.44
2018-08-09T12:05:33.636Z,27.64
2018-08-09T12:06:33.651Z,28.13
2018-08-09T12:07:33.665Z,28.52
2018-08-09T12:08:33.680Z,28.13
2018-08-09T12:09:33.719Z,27.06
2018-08-09T12:10:33.709Z,27.34
2018-08-09T12:11:33.724Z,26.93
2018-08-09T12:12:33.739Z,26.35
2018-08-09T12:13:33.775Z,27.42
2018-08-09T12:14:33.766Z,28.00
2018-08-09T12:15:33.782Z,27.40
2018-08-09T12:16:33.796Z,27.32
2018-08-09T12:17:33.811Z,26.64
2018-08-09T12:18:33.825Z,26.95
2018-08-09T12:19:33.841Z,28.54
2018-08-09T12:20:33.854Z,27.76
2018-08-09T12:21:33.866Z,28.95
2018-08-09T12:22:33.881Z,27.08
2018-08-09T12:23:33.894Z,25.88
2018-08-09T12:24:33.908Z,26.65
2018-08-09T12:25:34.000Z,27.15
2018-08-09T12:26:34.044Z,27.06
2018-08-09T12:27:33.955Z,26.85
2018-08-09T12:28:33.967Z,27.14
2018-08-09T12:29:33.981Z,28.59
2018-08-09T12:30:33.997Z,28.19
2018-08-09T12:31:34.013Z,26.80
2018-08-09T12:32:34.023Z,27.70
2018-08-09T12:33:34.037Z,28.30
2018-08-09T12:34:34.053Z,27.43
2018-08-09T12:35:34.065Z,27.94
2018-08-09T12:36:34.113Z,26.97
2018-08-09T12:37:34.096Z,27.17
2018-08-09T12:38:34.105Z,25.98
2018-08-09T12:39:34.120Z,25.59
2018-08-09T12:40:34.134Z,26.47
2018-08-09T12:41:34.148Z,25.77
2018-08-09T12:42:34.161Z,26.05
2018-08-09T12:43:34.175Z,26.04
2018-08-09T12:44:34.188Z,26.63
2018-08-09T12:45:34.228Z,26.35
2018-08-09T12:46:34.217Z,27.33
2018-08-09T12:47:34.229Z,25.66
2018-08-09T12:48:34.244Z,25.17
2018-08-09T12:49:34.261Z,25.56
2018-08-09T12:50:34.272Z,26.07
2018-08-09T12:51:34.284Z,25.67
2018-08-09T12:52:34.298Z,25.76